sensor_id;sensor_type;location;lat;lon;timestamp;P1;durP1;ratioP1;P2;durP2;ratioP2
35496;SDS011;21609;49.298;6.844;2022-10-16T00:01:58;0.30;;;0.30;;
35496;SDS011;21609;49.298;6.844;2022-10-16T00:04:23;0.40;;;0.20;;
35496;SDS011;21609;49.298;6.844;2022-10-16T00:06:49;0.55;;;0.55;;
35496;SDS011;21609;49.298;6.844;2022-10-16T00:09:14;0.70;;;0.52;;
35496;SDS011;21609;49.298;6.844;2022-10-16T00:11:40;0.73;;;0.40;;
35496;SDS011;21609;49.298;6.844;2022-10-16T00:14:08;0.50;;;0.50;;
35496;SDS011;21609;49.298;6.844;2022-10-16T00:16:36;0.30;;;0.30;;
35496;SDS011;21609;49.298;6.844;2022-10-16T00:19:01;0.75;;;0.57;;
35496;SDS011;21609;49.298;6.844;2022-10-16T00:21:28;0.30;;;0.30;;
35496;SDS011;21609;49.298;6.844;2022-10-16T00:23:58;0.70;;;0.30;;
35496;SDS011;21609;49.298;6.844;2022-10-16T00:26:27;0.30;;;0.30;;
35496;SDS011;21609;49.298;6.844;2022-10-16T00:28:54;0.43;;;0.40;;
35496;SDS011;21609;49.298;6.844;2022-10-16T00:31:20;0.88;;;0.40;;
35496;SDS011;21609;49.298;6.844;2022-10-16T00:33:47;0.47;;;0.45;;
35496;SDS011;21609;49.298;6.844;2022-10-16T00:36:14;0.38;;;0.30;;
35496;SDS011;21609;49.298;6.844;2022-10-16T00:38:42;0.50;;;0.45;;
35496;SDS011;21609;49.298;6.844;2022-10-16T00:41:10;0.52;;;0.40;;
35496;SDS011;21609;49.298;6.844;2022-10-16T00:46:08;0.35;;;0.35;;
35496;SDS011;21609;49.298;6.844;2022-10-16T00:48:39;0.77;;;0.40;;
35496;SDS011;21609;49.298;6.844;2022-10-16T00:51:05;1.98;;;0.50;;
35496;SDS011;21609;49.298;6.844;2022-10-16T00:53:32;0.68;;;0.50;;
35496;SDS011;21609;49.298;6.844;2022-10-16T00:55:58;0.30;;;0.30;;
35496;SDS011;21609;49.298;6.844;2022-10-16T00:58:23;0.32;;;0.22;;
35496;SDS011;21609;49.298;6.844;2022-10-16T01:00:49;0.55;;;0.40;;
35496;SDS011;21609;49.298;6.844;2022-10-16T01:03:31;0.68;;;0.30;;
35496;SDS011;21609;49.298;6.844;2022-10-16T01:14:24;0.40;;;0.30;;
35496;SDS011;21609;49.298;6.844;2022-10-16T01:16:58;1.48;;;0.38;;
35496;SDS011;21609;49.298;6.844;2022-10-16T01:22:07;0.30;;;0.30;;
35496;SDS011;21609;49.298;6.844;2022-10-16T01:24:41;0.25;;;0.20;;
35496;SDS011;21609;49.298;6.844;2022-10-16T01:27:15;0.52;;;0.40;;
35496;SDS011;21609;49.298;6.844;2022-10-16T01:29:49;0.68;;;0.30;;
35496;SDS011;21609;49.298;6.844;2022-10-16T01:32:42;0.20;;;0.20;;
35496;SDS011;21609;49.298;6.844;2022-10-16T01:35:21;0.30;;;0.30;;
35496;SDS011;21609;49.298;6.844;2022-10-16T01:37:55;0.20;;;0.20;;
35496;SDS011;21609;49.298;6.844;2022-10-16T01:40:42;0.52;;;0.30;;
35496;SDS011;21609;49.298;6.844;2022-10-16T01:43:15;0.28;;;0.20;;
35496;SDS011;21609;49.298;6.844;2022-10-16T01:45:45;0.50;;;0.40;;
35496;SDS011;21609;49.298;6.844;2022-10-16T01:48:13;0.60;;;0.38;;
35496;SDS011;21609;49.298;6.844;2022-10-16T01:50:43;0.68;;;0.38;;
35496;SDS011;21609;49.298;6.844;2022-10-16T01:53:13;0.30;;;0.30;;
35496;SDS011;21609;49.298;6.844;2022-10-16T01:55:41;0.57;;;0.50;;
35496;SDS011;21609;49.298;6.844;2022-10-16T01:58:12;0.20;;;0.20;;
35496;SDS011;21609;49.298;6.844;2022-10-16T02:00:39;1.00;;;0.28;;
35496;SDS011;21609;49.298;6.844;2022-10-16T02:05:44;0.30;;;0.20;;
35496;SDS011;21609;49.298;6.844;2022-10-16T02:08:18;0.43;;;0.35;;
35496;SDS011;21609;49.298;6.844;2022-10-16T02:10:45;0.30;;;0.30;;
35496;SDS011;21609;49.298;6.844;2022-10-16T02:13:17;0.30;;;0.30;;
35496;SDS011;21609;49.298;6.844;2022-10-16T02:15:48;0.40;;;0.32;;
35496;SDS011;21609;49.298;6.844;2022-10-16T02:18:14;1.40;;;0.40;;
35496;SDS011;21609;49.298;6.844;2022-10-16T02:20:43;0.40;;;0.30;;
35496;SDS011;21609;49.298;6.844;2022-10-16T02:23:13;0.32;;;0.30;;
35496;SDS011;21609;49.298;6.844;2022-10-16T02:25:43;0.25;;;0.17;;
35496;SDS011;21609;49.298;6.844;2022-10-16T02:30:55;0.50;;;0.50;;
35496;SDS011;21609;49.298;6.844;2022-10-16T02:33:24;0.82;;;0.28;;
35496;SDS011;21609;49.298;6.844;2022-10-16T02:35:51;0.25;;;0.25;;
35496;SDS011;21609;49.298;6.844;2022-10-16T02:38:19;0.40;;;0.32;;
35496;SDS011;21609;49.298;6.844;2022-10-16T02:40:46;0.40;;;0.30;;
35496;SDS011;21609;49.298;6.844;2022-10-16T02:43:12;0.40;;;0.40;;
35496;SDS011;21609;49.298;6.844;2022-10-16T02:45:38;0.43;;;0.43;;
35496;SDS011;21609;49.298;6.844;2022-10-16T02:48:03;0.28;;;0.20;;
35496;SDS011;21609;49.298;6.844;2022-10-16T02:50:29;0.88;;;0.40;;
35496;SDS011;21609;49.298;6.844;2022-10-16T02:52:55;0.20;;;0.20;;
35496;SDS011;21609;49.298;6.844;2022-10-16T02:55:21;0.50;;;0.20;;
35496;SDS011;21609;49.298;6.844;2022-10-16T02:57:46;1.27;;;0.60;;
35496;SDS011;21609;49.298;6.844;2022-10-16T03:00:13;0.15;;;0.15;;
35496;SDS011;21609;49.298;6.844;2022-10-16T03:02:40;0.20;;;0.20;;
35496;SDS011;21609;49.298;6.844;2022-10-16T03:05:06;0.20;;;0.20;;
35496;SDS011;21609;49.298;6.844;2022-10-16T03:07:32;0.50;;;0.40;;
35496;SDS011;21609;49.298;6.844;2022-10-16T03:09:58;0.40;;;0.40;;
35496;SDS011;21609;49.298;6.844;2022-10-16T03:12:25;0.40;;;0.40;;
35496;SDS011;21609;49.298;6.844;2022-10-16T03:14:51;0.20;;;0.20;;
35496;SDS011;21609;49.298;6.844;2022-10-16T03:17:17;0.52;;;0.35;;
35496;SDS011;21609;49.298;6.844;2022-10-16T03:19:42;0.57;;;0.38;;
35496;SDS011;21609;49.298;6.844;2022-10-16T03:22:08;1.30;;;0.47;;
35496;SDS011;21609;49.298;6.844;2022-10-16T03:24:34;0.25;;;0.20;;
35496;SDS011;21609;49.298;6.844;2022-10-16T03:26:59;0.30;;;0.28;;
35496;SDS011;21609;49.298;6.844;2022-10-16T03:29:25;0.20;;;0.20;;
35496;SDS011;21609;49.298;6.844;2022-10-16T03:31:51;0.32;;;0.30;;
35496;SDS011;21609;49.298;6.844;2022-10-16T03:34:16;0.28;;;0.28;;
35496;SDS011;21609;49.298;6.844;2022-10-16T03:36:42;0.65;;;0.30;;
35496;SDS011;21609;49.298;6.844;2022-10-16T03:39:07;0.47;;;0.20;;
35496;SDS011;21609;49.298;6.844;2022-10-16T03:41:33;0.20;;;0.20;;
35496;SDS011;21609;49.298;6.844;2022-10-16T03:43:59;0.30;;;0.30;;
35496;SDS011;21609;49.298;6.844;2022-10-16T03:46:24;0.30;;;0.30;;
35496;SDS011;21609;49.298;6.844;2022-10-16T03:48:50;0.60;;;0.47;;
35496;SDS011;21609;49.298;6.844;2022-10-16T03:51:15;0.40;;;0.35;;
35496;SDS011;21609;49.298;6.844;2022-10-16T03:53:41;0.35;;;0.35;;
35496;SDS011;21609;49.298;6.844;2022-10-16T03:56:06;0.68;;;0.38;;
35496;SDS011;21609;49.298;6.844;2022-10-16T03:58:32;0.30;;;0.30;;
35496;SDS011;21609;49.298;6.844;2022-10-16T04:00:58;0.35;;;0.35;;
35496;SDS011;21609;49.298;6.844;2022-10-16T04:03:23;0.30;;;0.20;;
35496;SDS011;21609;49.298;6.844;2022-10-16T04:05:49;0.60;;;0.30;;
35496;SDS011;21609;49.298;6.844;2022-10-16T04:08:15;0.30;;;0.30;;
35496;SDS011;21609;49.298;6.844;2022-10-16T04:10:43;1.08;;;0.40;;
35496;SDS011;21609;49.298;6.844;2022-10-16T04:13:09;0.68;;;0.20;;
35496;SDS011;21609;49.298;6.844;2022-10-16T04:15:35;0.20;;;0.20;;
35496;SDS011;21609;49.298;6.844;2022-10-16T04:18:00;0.30;;;0.30;;
35496;SDS011;21609;49.298;6.844;2022-10-16T04:20:26;0.35;;;0.20;;
35496;SDS011;21609;49.298;6.844;2022-10-16T04:22:52;0.30;;;0.30;;
35496;SDS011;21609;49.298;6.844;2022-10-16T04:25:18;0.68;;;0.22;;
35496;SDS011;21609;49.298;6.844;2022-10-16T04:27:43;0.20;;;0.20;;
35496;SDS011;21609;49.298;6.844;2022-10-16T04:30:09;0.40;;;0.30;;
35496;SDS011;21609;49.298;6.844;2022-10-16T04:32:35;0.30;;;0.30;;
35496;SDS011;21609;49.298;6.844;2022-10-16T04:35:01;0.30;;;0.30;;
35496;SDS011;21609;49.298;6.844;2022-10-16T04:37:27;0.40;;;0.30;;
35496;SDS011;21609;49.298;6.844;2022-10-16T04:39:53;0.20;;;0.20;;
35496;SDS011;21609;49.298;6.844;2022-10-16T04:42:19;0.28;;;0.20;;
35496;SDS011;21609;49.298;6.844;2022-10-16T04:44:45;0.40;;;0.30;;
35496;SDS011;21609;49.298;6.844;2022-10-16T04:47:12;0.50;;;0.30;;
35496;SDS011;21609;49.298;6.844;2022-10-16T04:49:38;0.20;;;0.13;;
35496;SDS011;21609;49.298;6.844;2022-10-16T04:52:04;0.20;;;0.20;;
35496;SDS011;21609;49.298;6.844;2022-10-16T04:54:29;0.32;;;0.30;;
35496;SDS011;21609;49.298;6.844;2022-10-16T04:56:55;0.20;;;0.20;;
35496;SDS011;21609;49.298;6.844;2022-10-16T04:59:21;0.20;;;0.20;;
35496;SDS011;21609;49.298;6.844;2022-10-16T05:01:47;0.32;;;0.30;;
35496;SDS011;21609;49.298;6.844;2022-10-16T05:04:12;2.70;;;0.60;;
35496;SDS011;21609;49.298;6.844;2022-10-16T05:06:39;2.45;;;0.55;;
35496;SDS011;21609;49.298;6.844;2022-10-16T05:09:06;1.45;;;0.47;;
35496;SDS011;21609;49.298;6.844;2022-10-16T05:11:32;5.50;;;1.23;;
35496;SDS011;21609;49.298;6.844;2022-10-16T05:13:58;2.03;;;0.60;;
35496;SDS011;21609;49.298;6.844;2022-10-16T05:16:23;2.50;;;0.63;;
35496;SDS011;21609;49.298;6.844;2022-10-16T05:18:50;1.52;;;0.85;;
35496;SDS011;21609;49.298;6.844;2022-10-16T05:21:16;0.63;;;0.38;;
35496;SDS011;21609;49.298;6.844;2022-10-16T05:23:42;0.40;;;0.40;;
35496;SDS011;21609;49.298;6.844;2022-10-16T05:26:07;13.15;;;0.75;;
35496;SDS011;21609;49.298;6.844;2022-10-16T05:28:33;1.38;;;0.38;;
35496;SDS011;21609;49.298;6.844;2022-10-16T05:30:59;1.90;;;0.32;;
35496;SDS011;21609;49.298;6.844;2022-10-16T05:33:28;2.78;;;0.88;;
35496;SDS011;21609;49.298;6.844;2022-10-16T05:35:54;0.20;;;0.20;;
35496;SDS011;21609;49.298;6.844;2022-10-16T05:38:19;8.75;;;0.57;;
35496;SDS011;21609;49.298;6.844;2022-10-16T05:40:54;0.43;;;0.20;;
35496;SDS011;21609;49.298;6.844;2022-10-16T05:43:19;0.30;;;0.20;;
35496;SDS011;21609;49.298;6.844;2022-10-16T05:45:53;3.40;;;0.85;;
35496;SDS011;21609;49.298;6.844;2022-10-16T05:48:19;0.40;;;0.20;;
35496;SDS011;21609;49.298;6.844;2022-10-16T05:50:45;0.73;;;0.50;;
35496;SDS011;21609;49.298;6.844;2022-10-16T05:53:10;7.75;;;0.90;;
35496;SDS011;21609;49.298;6.844;2022-10-16T05:55:36;0.70;;;0.40;;
35496;SDS011;21609;49.298;6.844;2022-10-16T05:58:01;0.30;;;0.30;;
35496;SDS011;21609;49.298;6.844;2022-10-16T06:00:27;2.40;;;0.68;;
35496;SDS011;21609;49.298;6.844;2022-10-16T06:02:53;0.70;;;0.43;;
35496;SDS011;21609;49.298;6.844;2022-10-16T06:05:18;0.40;;;0.40;;
35496;SDS011;21609;49.298;6.844;2022-10-16T06:07:44;2.40;;;0.50;;
35496;SDS011;21609;49.298;6.844;2022-10-16T06:10:09;1.60;;;0.35;;
35496;SDS011;21609;49.298;6.844;2022-10-16T06:12:35;0.77;;;0.45;;
35496;SDS011;21609;49.298;6.844;2022-10-16T06:15:01;0.77;;;0.52;;
35496;SDS011;21609;49.298;6.844;2022-10-16T06:17:26;1.25;;;0.47;;
35496;SDS011;21609;49.298;6.844;2022-10-16T06:19:52;0.35;;;0.35;;
35496;SDS011;21609;49.298;6.844;2022-10-16T06:22:17;0.55;;;0.43;;
35496;SDS011;21609;49.298;6.844;2022-10-16T06:24:43;0.60;;;0.30;;
35496;SDS011;21609;49.298;6.844;2022-10-16T06:27:08;1.23;;;0.50;;
35496;SDS011;21609;49.298;6.844;2022-10-16T06:29:34;0.30;;;0.30;;
35496;SDS011;21609;49.298;6.844;2022-10-16T06:32:00;0.30;;;0.30;;
35496;SDS011;21609;49.298;6.844;2022-10-16T06:34:25;1.65;;;0.22;;
35496;SDS011;21609;49.298;6.844;2022-10-16T06:36:51;0.47;;;0.30;;
35496;SDS011;21609;49.298;6.844;2022-10-16T06:39:16;0.45;;;0.40;;
35496;SDS011;21609;49.298;6.844;2022-10-16T06:41:42;1.40;;;0.45;;
35496;SDS011;21609;49.298;6.844;2022-10-16T06:44:07;3.67;;;0.73;;
35496;SDS011;21609;49.298;6.844;2022-10-16T06:46:33;2.90;;;0.55;;
35496;SDS011;21609;49.298;6.844;2022-10-16T06:48:59;1.65;;;0.40;;
35496;SDS011;21609;49.298;6.844;2022-10-16T06:51:25;2.28;;;0.50;;
35496;SDS011;21609;49.298;6.844;2022-10-16T06:53:54;0.60;;;0.50;;
35496;SDS011;21609;49.298;6.844;2022-10-16T06:56:24;0.70;;;0.63;;
35496;SDS011;21609;49.298;6.844;2022-10-16T06:58:51;0.90;;;0.43;;
35496;SDS011;21609;49.298;6.844;2022-10-16T07:01:18;0.80;;;0.45;;
35496;SDS011;21609;49.298;6.844;2022-10-16T07:03:46;1.52;;;0.65;;
35496;SDS011;21609;49.298;6.844;2022-10-16T07:06:13;1.55;;;0.90;;
35496;SDS011;21609;49.298;6.844;2022-10-16T07:08:41;0.70;;;0.43;;
35496;SDS011;21609;49.298;6.844;2022-10-16T07:11:09;0.43;;;0.43;;
35496;SDS011;21609;49.298;6.844;2022-10-16T07:13:37;1.55;;;0.45;;
35496;SDS011;21609;49.298;6.844;2022-10-16T07:16:04;1.30;;;0.50;;
35496;SDS011;21609;49.298;6.844;2022-10-16T07:18:34;1.75;;;0.52;;
35496;SDS011;21609;49.298;6.844;2022-10-16T07:21:06;0.30;;;0.30;;
35496;SDS011;21609;49.298;6.844;2022-10-16T07:23:34;2.85;;;0.50;;
35496;SDS011;21609;49.298;6.844;2022-10-16T07:26:00;1.23;;;0.40;;
35496;SDS011;21609;49.298;6.844;2022-10-16T07:28:26;2.28;;;0.40;;
35496;SDS011;21609;49.298;6.844;2022-10-16T07:30:52;0.57;;;0.20;;
35496;SDS011;21609;49.298;6.844;2022-10-16T07:33:17;0.90;;;0.32;;
35496;SDS011;21609;49.298;6.844;2022-10-16T07:35:53;1.23;;;0.70;;
35496;SDS011;21609;49.298;6.844;2022-10-16T07:38:20;1.30;;;0.50;;
35496;SDS011;21609;49.298;6.844;2022-10-16T07:40:46;1.30;;;0.60;;
35496;SDS011;21609;49.298;6.844;2022-10-16T07:43:12;0.70;;;0.50;;
35496;SDS011;21609;49.298;6.844;2022-10-16T07:45:48;1.20;;;0.98;;
35496;SDS011;21609;49.298;6.844;2022-10-16T07:48:15;0.95;;;0.82;;
35496;SDS011;21609;49.298;6.844;2022-10-16T07:50:41;0.80;;;0.43;;
35496;SDS011;21609;49.298;6.844;2022-10-16T07:53:07;0.40;;;0.40;;
35496;SDS011;21609;49.298;6.844;2022-10-16T07:55:33;4.50;;;1.20;;
35496;SDS011;21609;49.298;6.844;2022-10-16T07:57:59;8.00;;;2.42;;
35496;SDS011;21609;49.298;6.844;2022-10-16T08:00:24;4.78;;;2.67;;
35496;SDS011;21609;49.298;6.844;2022-10-16T08:02:50;5.55;;;3.15;;
35496;SDS011;21609;49.298;6.844;2022-10-16T08:05:15;4.68;;;3.13;;
35496;SDS011;21609;49.298;6.844;2022-10-16T08:07:41;2.92;;;2.40;;
35496;SDS011;21609;49.298;6.844;2022-10-16T08:10:09;2.58;;;1.95;;
35496;SDS011;21609;49.298;6.844;2022-10-16T08:12:40;3.67;;;1.60;;
35496;SDS011;21609;49.298;6.844;2022-10-16T08:15:06;4.60;;;1.85;;
35496;SDS011;21609;49.298;6.844;2022-10-16T08:17:32;2.58;;;1.70;;
35496;SDS011;21609;49.298;6.844;2022-10-16T08:19:58;1.95;;;1.30;;
35496;SDS011;21609;49.298;6.844;2022-10-16T08:22:23;2.08;;;1.33;;
35496;SDS011;21609;49.298;6.844;2022-10-16T08:24:49;2.28;;;1.77;;
35496;SDS011;21609;49.298;6.844;2022-10-16T08:27:14;1.58;;;1.33;;
35496;SDS011;21609;49.298;6.844;2022-10-16T08:29:40;2.42;;;2.00;;
35496;SDS011;21609;49.298;6.844;2022-10-16T08:32:05;1.70;;;1.48;;
35496;SDS011;21609;49.298;6.844;2022-10-16T08:34:31;1.52;;;1.42;;
35496;SDS011;21609;49.298;6.844;2022-10-16T08:36:56;3.55;;;1.35;;
35496;SDS011;21609;49.298;6.844;2022-10-16T08:39:22;1.35;;;1.25;;
35496;SDS011;21609;49.298;6.844;2022-10-16T08:47:23;26.38;;;12.23;;
35496;SDS011;21609;49.298;6.844;2022-10-16T08:49:59;40.67;;;18.52;;
35496;SDS011;21609;49.298;6.844;2022-10-16T08:52:34;35.58;;;17.33;;
35496;SDS011;21609;49.298;6.844;2022-10-16T08:55:03;51.22;;;20.60;;
35496;SDS011;21609;49.298;6.844;2022-10-16T08:57:29;54.35;;;22.50;;
35496;SDS011;21609;49.298;6.844;2022-10-16T08:59:58;50.78;;;23.77;;
35496;SDS011;21609;49.298;6.844;2022-10-16T09:02:40;45.65;;;22.15;;
35496;SDS011;21609;49.298;6.844;2022-10-16T09:11:14;63.83;;;31.38;;
35496;SDS011;21609;49.298;6.844;2022-10-16T09:16:33;63.28;;;33.60;;
35496;SDS011;21609;49.298;6.844;2022-10-16T09:21:52;72.95;;;34.78;;
35496;SDS011;21609;49.298;6.844;2022-10-16T09:24:23;67.25;;;30.52;;
35496;SDS011;21609;49.298;6.844;2022-10-16T09:26:51;63.35;;;31.13;;
35496;SDS011;21609;49.298;6.844;2022-10-16T09:29:17;59.33;;;29.60;;
35496;SDS011;21609;49.298;6.844;2022-10-16T09:31:45;55.03;;;25.65;;
35496;SDS011;21609;49.298;6.844;2022-10-16T09:34:17;46.88;;;26.73;;
35496;SDS011;21609;49.298;6.844;2022-10-16T09:36:54;53.05;;;27.30;;
35496;SDS011;21609;49.298;6.844;2022-10-16T09:39:22;58.92;;;27.13;;
35496;SDS011;21609;49.298;6.844;2022-10-16T09:41:48;50.90;;;27.13;;
35496;SDS011;21609;49.298;6.844;2022-10-16T09:44:33;53.60;;;27.80;;
35496;SDS011;21609;49.298;6.844;2022-10-16T09:47:02;49.28;;;24.30;;
35496;SDS011;21609;49.298;6.844;2022-10-16T09:49:37;52.60;;;26.95;;
35496;SDS011;21609;49.298;6.844;2022-10-16T09:52:04;46.28;;;24.65;;
35496;SDS011;21609;49.298;6.844;2022-10-16T09:54:31;43.45;;;22.75;;
35496;SDS011;21609;49.298;6.844;2022-10-16T09:59:55;39.67;;;22.08;;
35496;SDS011;21609;49.298;6.844;2022-10-16T10:02:29;43.22;;;22.17;;
35496;SDS011;21609;49.298;6.844;2022-10-16T10:04:58;44.28;;;23.98;;
35496;SDS011;21609;49.298;6.844;2022-10-16T10:07:25;37.58;;;19.55;;
35496;SDS011;21609;49.298;6.844;2022-10-16T10:09:53;42.22;;;19.50;;
35496;SDS011;21609;49.298;6.844;2022-10-16T10:12:27;48.47;;;24.83;;
35496;SDS011;21609;49.298;6.844;2022-10-16T10:14:57;37.35;;;19.55;;
35496;SDS011;21609;49.298;6.844;2022-10-16T10:17:28;39.67;;;20.00;;
35496;SDS011;21609;49.298;6.844;2022-10-16T10:19:55;41.97;;;20.98;;
35496;SDS011;21609;49.298;6.844;2022-10-16T10:41:32;28.70;;;16.35;;
35496;SDS011;21609;49.298;6.844;2022-10-16T10:44:24;28.80;;;17.13;;
35496;SDS011;21609;49.298;6.844;2022-10-16T10:52:34;32.42;;;18.30;;
35496;SDS011;21609;49.298;6.844;2022-10-16T11:07:04;23.87;;;12.93;;
35496;SDS011;21609;49.298;6.844;2022-10-16T11:09:38;24.77;;;12.98;;
35496;SDS011;21609;49.298;6.844;2022-10-16T11:12:13;25.42;;;14.25;;
35496;SDS011;21609;49.298;6.844;2022-10-16T11:17:16;30.83;;;13.65;;
35496;SDS011;21609;49.298;6.844;2022-10-16T11:22:31;27.75;;;13.63;;
35496;SDS011;21609;49.298;6.844;2022-10-16T11:25:12;20.40;;;11.60;;
35496;SDS011;21609;49.298;6.844;2022-10-16T11:27:55;22.60;;;13.45;;
35496;SDS011;21609;49.298;6.844;2022-10-16T11:30:42;20.38;;;12.35;;
35496;SDS011;21609;49.298;6.844;2022-10-16T11:38:34;20.17;;;12.02;;
35496;SDS011;21609;49.298;6.844;2022-10-16T11:41:32;21.50;;;12.35;;
35496;SDS011;21609;49.298;6.844;2022-10-16T11:47:02;19.47;;;11.00;;
35496;SDS011;21609;49.298;6.844;2022-10-16T11:49:32;22.02;;;12.70;;
35496;SDS011;21609;49.298;6.844;2022-10-16T11:57:23;20.85;;;11.05;;
35496;SDS011;21609;49.298;6.844;2022-10-16T12:00:02;21.95;;;11.15;;
35496;SDS011;21609;49.298;6.844;2022-10-16T12:02:48;18.25;;;10.85;;
35496;SDS011;21609;49.298;6.844;2022-10-16T12:05:33;16.90;;;11.40;;
35496;SDS011;21609;49.298;6.844;2022-10-16T12:08:08;19.42;;;12.07;;
35496;SDS011;21609;49.298;6.844;2022-10-16T12:10:36;20.33;;;11.35;;
35496;SDS011;21609;49.298;6.844;2022-10-16T12:13:04;18.80;;;11.88;;
35496;SDS011;21609;49.298;6.844;2022-10-16T12:15:50;20.30;;;12.55;;
35496;SDS011;21609;49.298;6.844;2022-10-16T12:18:22;19.92;;;12.57;;
35496;SDS011;21609;49.298;6.844;2022-10-16T12:20:56;22.92;;;12.43;;
35496;SDS011;21609;49.298;6.844;2022-10-16T12:25:56;15.82;;;10.85;;
35496;SDS011;21609;49.298;6.844;2022-10-16T12:28:27;19.52;;;11.07;;
35496;SDS011;21609;49.298;6.844;2022-10-16T12:30:56;15.57;;;10.40;;
35496;SDS011;21609;49.298;6.844;2022-10-16T12:33:23;18.83;;;11.07;;
35496;SDS011;21609;49.298;6.844;2022-10-16T12:35:51;18.10;;;9.73;;
35496;SDS011;21609;49.298;6.844;2022-10-16T12:40:45;17.35;;;10.90;;
35496;SDS011;21609;49.298;6.844;2022-10-16T12:45:45;26.13;;;12.13;;
35496;SDS011;21609;49.298;6.844;2022-10-16T12:48:18;22.73;;;11.93;;
35496;SDS011;21609;49.298;6.844;2022-10-16T12:50:46;15.82;;;9.93;;
35496;SDS011;21609;49.298;6.844;2022-10-16T12:53:22;16.95;;;10.93;;
35496;SDS011;21609;49.298;6.844;2022-10-16T12:55:57;17.90;;;10.52;;
35496;SDS011;21609;49.298;6.844;2022-10-16T13:01:46;16.42;;;10.27;;
35496;SDS011;21609;49.298;6.844;2022-10-16T13:10:58;15.45;;;8.88;;
35496;SDS011;21609;49.298;6.844;2022-10-16T13:25:32;18.13;;;10.00;;
35496;SDS011;21609;49.298;6.844;2022-10-16T13:28:30;15.30;;;10.25;;
35496;SDS011;21609;49.298;6.844;2022-10-16T13:30:59;14.98;;;9.75;;
35496;SDS011;21609;49.298;6.844;2022-10-16T13:33:33;17.65;;;10.20;;
35496;SDS011;21609;49.298;6.844;2022-10-16T13:36:04;17.77;;;9.30;;
35496;SDS011;21609;49.298;6.844;2022-10-16T13:38:32;17.58;;;10.18;;
35496;SDS011;21609;49.298;6.844;2022-10-16T13:41:03;18.10;;;9.15;;
35496;SDS011;21609;49.298;6.844;2022-10-16T13:43:34;16.05;;;9.20;;
35496;SDS011;21609;49.298;6.844;2022-10-16T13:46:04;10.88;;;8.35;;
35496;SDS011;21609;49.298;6.844;2022-10-16T13:48:32;15.48;;;9.55;;
35496;SDS011;21609;49.298;6.844;2022-10-16T13:50:59;13.48;;;9.40;;
35496;SDS011;21609;49.298;6.844;2022-10-16T13:53:25;16.40;;;9.80;;
35496;SDS011;21609;49.298;6.844;2022-10-16T13:55:51;15.18;;;8.77;;
35496;SDS011;21609;49.298;6.844;2022-10-16T13:58:17;16.15;;;9.55;;
35496;SDS011;21609;49.298;6.844;2022-10-16T14:01:02;16.13;;;8.80;;
35496;SDS011;21609;49.298;6.844;2022-10-16T14:03:30;17.58;;;9.77;;
35496;SDS011;21609;49.298;6.844;2022-10-16T14:05:59;13.55;;;8.52;;
35496;SDS011;21609;49.298;6.844;2022-10-16T14:08:27;14.77;;;8.75;;
35496;SDS011;21609;49.298;6.844;2022-10-16T14:10:55;15.35;;;9.95;;
35496;SDS011;21609;49.298;6.844;2022-10-16T14:13:43;12.68;;;8.93;;
35496;SDS011;21609;49.298;6.844;2022-10-16T14:16:15;13.25;;;8.07;;
35496;SDS011;21609;49.298;6.844;2022-10-16T14:18:45;12.65;;;8.13;;
35496;SDS011;21609;49.298;6.844;2022-10-16T14:21:19;14.45;;;9.00;;
35496;SDS011;21609;49.298;6.844;2022-10-16T14:23:44;14.45;;;8.32;;
35496;SDS011;21609;49.298;6.844;2022-10-16T14:28:38;13.68;;;8.18;;
35496;SDS011;21609;49.298;6.844;2022-10-16T14:31:23;21.20;;;8.10;;
35496;SDS011;21609;49.298;6.844;2022-10-16T14:33:49;14.57;;;8.68;;
35496;SDS011;21609;49.298;6.844;2022-10-16T14:36:15;16.45;;;8.73;;
35496;SDS011;21609;49.298;6.844;2022-10-16T14:38:55;13.93;;;8.18;;
35496;SDS011;21609;49.298;6.844;2022-10-16T14:41:27;12.82;;;7.53;;
35496;SDS011;21609;49.298;6.844;2022-10-16T14:43:54;13.23;;;7.65;;
35496;SDS011;21609;49.298;6.844;2022-10-16T14:46:28;10.95;;;9.02;;
35496;SDS011;21609;49.298;6.844;2022-10-16T14:51:37;10.75;;;7.80;;
35496;SDS011;21609;49.298;6.844;2022-10-16T14:54:07;13.87;;;8.33;;
35496;SDS011;21609;49.298;6.844;2022-10-16T14:56:40;9.50;;;7.90;;
35496;SDS011;21609;49.298;6.844;2022-10-16T14:59:17;12.60;;;7.65;;
35496;SDS011;21609;49.298;6.844;2022-10-16T15:01:50;12.13;;;7.35;;
35496;SDS011;21609;49.298;6.844;2022-10-16T15:04:16;8.93;;;6.93;;
35496;SDS011;21609;49.298;6.844;2022-10-16T15:06:42;10.38;;;6.68;;
35496;SDS011;21609;49.298;6.844;2022-10-16T15:09:08;10.35;;;7.63;;
35496;SDS011;21609;49.298;6.844;2022-10-16T15:11:34;11.10;;;7.43;;
35496;SDS011;21609;49.298;6.844;2022-10-16T15:13:59;10.95;;;7.68;;
35496;SDS011;21609;49.298;6.844;2022-10-16T15:16:25;16.13;;;7.78;;
35496;SDS011;21609;49.298;6.844;2022-10-16T15:18:51;13.63;;;7.65;;
35496;SDS011;21609;49.298;6.844;2022-10-16T15:21:28;10.23;;;6.53;;
35496;SDS011;21609;49.298;6.844;2022-10-16T15:23:55;12.75;;;6.20;;
35496;SDS011;21609;49.298;6.844;2022-10-16T15:26:22;11.10;;;7.13;;
35496;SDS011;21609;49.298;6.844;2022-10-16T15:28:49;8.65;;;5.50;;
35496;SDS011;21609;49.298;6.844;2022-10-16T15:31:15;8.05;;;6.15;;
35496;SDS011;21609;49.298;6.844;2022-10-16T15:33:40;8.75;;;6.15;;
35496;SDS011;21609;49.298;6.844;2022-10-16T15:36:06;11.77;;;6.90;;
35496;SDS011;21609;49.298;6.844;2022-10-16T15:38:32;11.55;;;6.82;;
35496;SDS011;21609;49.298;6.844;2022-10-16T15:40:57;8.02;;;6.25;;
35496;SDS011;21609;49.298;6.844;2022-10-16T15:43:23;9.90;;;6.00;;
35496;SDS011;21609;49.298;6.844;2022-10-16T15:46:05;7.90;;;6.38;;
35496;SDS011;21609;49.298;6.844;2022-10-16T15:48:35;9.60;;;6.80;;
35496;SDS011;21609;49.298;6.844;2022-10-16T15:51:03;8.73;;;5.75;;
35496;SDS011;21609;49.298;6.844;2022-10-16T15:53:30;7.85;;;6.40;;
35496;SDS011;21609;49.298;6.844;2022-10-16T15:56:01;10.68;;;6.40;;
35496;SDS011;21609;49.298;6.844;2022-10-16T15:58:28;12.20;;;6.57;;
35496;SDS011;21609;49.298;6.844;2022-10-16T16:00:55;10.30;;;5.45;;
35496;SDS011;21609;49.298;6.844;2022-10-16T16:03:22;7.47;;;5.50;;
35496;SDS011;21609;49.298;6.844;2022-10-16T16:05:48;7.53;;;5.65;;
35496;SDS011;21609;49.298;6.844;2022-10-16T16:08:14;10.00;;;6.15;;
35496;SDS011;21609;49.298;6.844;2022-10-16T16:10:40;9.50;;;6.05;;
35496;SDS011;21609;49.298;6.844;2022-10-16T16:13:05;6.10;;;5.45;;
35496;SDS011;21609;49.298;6.844;2022-10-16T16:15:32;8.70;;;5.07;;
35496;SDS011;21609;49.298;6.844;2022-10-16T16:17:58;7.90;;;5.43;;
35496;SDS011;21609;49.298;6.844;2022-10-16T16:20:23;7.05;;;5.30;;
35496;SDS011;21609;49.298;6.844;2022-10-16T16:22:49;8.02;;;5.75;;
35496;SDS011;21609;49.298;6.844;2022-10-16T16:25:15;8.65;;;5.63;;
35496;SDS011;21609;49.298;6.844;2022-10-16T16:27:41;8.23;;;6.15;;
35496;SDS011;21609;49.298;6.844;2022-10-16T16:30:07;9.40;;;5.80;;
35496;SDS011;21609;49.298;6.844;2022-10-16T16:32:34;9.35;;;6.22;;
35496;SDS011;21609;49.298;6.844;2022-10-16T16:35:00;8.73;;;6.05;;
35496;SDS011;21609;49.298;6.844;2022-10-16T16:37:27;9.07;;;6.05;;
35496;SDS011;21609;49.298;6.844;2022-10-16T16:39:55;8.07;;;5.95;;
35496;SDS011;21609;49.298;6.844;2022-10-16T16:44:52;7.30;;;4.95;;
35496;SDS011;21609;49.298;6.844;2022-10-16T16:47:18;10.90;;;5.75;;
35496;SDS011;21609;49.298;6.844;2022-10-16T16:49:44;7.88;;;5.32;;
35496;SDS011;21609;49.298;6.844;2022-10-16T16:52:11;8.43;;;5.97;;
35496;SDS011;21609;49.298;6.844;2022-10-16T16:54:37;6.07;;;5.47;;
35496;SDS011;21609;49.298;6.844;2022-10-16T16:57:03;9.43;;;6.53;;
35496;SDS011;21609;49.298;6.844;2022-10-16T16:59:29;8.95;;;7.53;;
35496;SDS011;21609;49.298;6.844;2022-10-16T17:01:57;10.70;;;7.43;;